createdAt,value
2022-08-20T00:01:16.829Z,75.23
2022-08-20T00:04:14.567Z,75.47
2022-08-20T00:07:12.033Z,75.51
2022-08-20T00:10:09.565Z,75.45
2022-08-20T00:13:07.869Z,75.15
2022-08-20T00:16:05.341Z,75.40
2022-08-20T00:19:02.805Z,75.54
2022-08-20T00:22:00.273Z,75.57
2022-08-20T00:24:57.759Z,75.76
2022-08-20T00:27:55.409Z,75.75
2022-08-20T00:30:53.034Z,75.75
2022-08-20T00:33:50.553Z,75.49
2022-08-20T00:36:48.176Z,75.65
2022-08-20T00:39:45.709Z,75.49
2022-08-20T00:42:43.235Z,75.42
2022-08-20T00:45:42.558Z,75.30
2022-08-20T00:48:40.044Z,75.34
2022-08-20T00:51:38.431Z,75.13
2022-08-20T00:54:35.907Z,75.48
2022-08-20T00:57:54.835Z,75.34
2022-08-20T01:00:52.115Z,75.28
2022-08-20T01:03:49.595Z,75.55
2022-08-20T01:06:47.948Z,75.37
2022-08-20T01:09:58.006Z,75.40
2022-08-20T01:12:59.221Z,75.45
2022-08-20T01:15:57.310Z,75.51
2022-08-20T01:18:54.799Z,75.41
2022-08-20T01:21:52.306Z,75.27
2022-08-20T01:24:50.511Z,75.02
2022-08-20T01:27:48.000Z,74.82
2022-08-20T01:30:52.863Z,74.91
2022-08-20T01:33:50.360Z,74.94
2022-08-20T01:36:48.238Z,74.68
2022-08-20T01:39:46.123Z,74.59
2022-08-20T01:42:58.675Z,74.52
2022-08-20T01:45:57.270Z,74.51
2022-08-20T01:48:54.736Z,74.14
2022-08-20T01:51:52.248Z,74.30
2022-08-20T01:54:49.721Z,74.36
2022-08-20T01:57:48.663Z,74.01
2022-08-20T02:00:46.158Z,73.98
2022-08-20T02:03:44.905Z,73.92
2022-08-20T02:06:42.472Z,74.02
2022-08-20T02:09:54.436Z,73.74
2022-08-20T02:12:53.038Z,73.60
2022-08-20T02:15:50.911Z,73.52
2022-08-20T02:18:48.378Z,73.39
2022-08-20T02:21:45.858Z,73.48
2022-08-20T02:24:43.327Z,73.14
2022-08-20T02:27:40.803Z,72.91
2022-08-20T02:30:38.311Z,72.50
2022-08-20T02:33:35.789Z,72.37
2022-08-20T02:36:37.446Z,72.16
2022-08-20T02:39:34.936Z,72.00
2022-08-20T02:42:32.487Z,71.93
2022-08-20T02:45:29.953Z,71.93
2022-08-20T02:48:27.429Z,71.76
2022-08-20T02:51:30.350Z,71.69
2022-08-20T02:54:29.411Z,71.40
2022-08-20T02:57:26.921Z,71.28
2022-08-20T03:00:24.415Z,71.34
2022-08-20T03:03:22.931Z,71.14
2022-08-20T03:06:22.214Z,71.03
2022-08-20T03:09:19.679Z,70.83
2022-08-20T03:12:17.153Z,70.88
2022-08-20T03:15:17.509Z,70.74
2022-08-20T03:18:15.451Z,70.56
2022-08-20T03:21:14.672Z,70.36
2022-08-20T03:24:12.512Z,70.24
2022-08-20T03:27:10.017Z,70.08
2022-08-20T03:30:09.524Z,70.14
2022-08-20T03:33:07.016Z,70.04
2022-08-20T03:36:04.500Z,69.89
2022-08-20T03:39:02.128Z,70.00
2022-08-20T03:41:59.596Z,69.95
2022-08-20T03:44:58.949Z,69.78
2022-08-20T03:47:57.041Z,69.68
2022-08-20T03:50:55.928Z,69.55
2022-08-20T03:53:53.423Z,69.51
2022-08-20T03:56:50.920Z,69.41
2022-08-20T03:59:49.874Z,69.42
2022-08-20T04:02:57.381Z,69.23
2022-08-20T04:05:55.097Z,69.18
2022-08-20T04:08:53.977Z,69.16
2022-08-20T04:11:51.548Z,69.06
2022-08-20T04:14:49.074Z,69.07
2022-08-20T04:17:47.137Z,69.03
2022-08-20T04:20:44.834Z,69.02
2022-08-20T04:23:42.365Z,69.01
2022-08-20T04:26:39.881Z,69.19
2022-08-20T04:29:37.809Z,69.16
2022-08-20T04:32:37.149Z,69.17
2022-08-20T04:35:36.029Z,69.25
2022-08-20T04:38:47.777Z,69.15
2022-08-20T04:41:48.965Z,69.10
2022-08-20T04:44:46.456Z,69.11
2022-08-20T04:47:43.964Z,69.08
2022-08-20T04:50:41.483Z,69.20
2022-08-20T04:53:39.527Z,69.10
2022-08-20T04:56:39.841Z,69.08
2022-08-20T04:59:37.543Z,69.14
2022-08-20T05:02:36.028Z,69.24
2022-08-20T05:05:35.316Z,69.28
2022-08-20T05:08:33.383Z,69.24
2022-08-20T05:11:35.843Z,69.42
2022-08-20T05:14:34.441Z,69.38
2022-08-20T05:17:31.949Z,69.42
2022-08-20T05:20:29.838Z,69.45
2022-08-20T05:23:27.321Z,69.36
2022-08-20T05:26:26.745Z,69.32
2022-08-20T05:29:24.798Z,69.23
2022-08-20T05:32:22.319Z,69.03
2022-08-20T05:35:19.851Z,68.89
2022-08-20T05:38:18.240Z,68.75
2022-08-20T05:41:27.549Z,68.92
2022-08-20T05:44:27.303Z,68.79
2022-08-20T05:47:29.238Z,68.71
2022-08-20T05:50:33.347Z,68.67
2022-08-20T05:53:32.476Z,68.45
2022-08-20T05:56:34.805Z,68.26
2022-08-20T05:59:35.213Z,68.07
2022-08-20T06:02:51.173Z,68.05
2022-08-20T06:05:50.820Z,67.91
2022-08-20T06:08:52.313Z,67.85
2022-08-20T06:11:49.914Z,67.84
2022-08-20T06:14:47.660Z,67.68
2022-08-20T06:17:45.146Z,67.60
2022-08-20T06:20:55.871Z,67.57
2022-08-20T06:23:57.499Z,67.59
2022-08-20T06:27:00.102Z,67.52
2022-08-20T06:29:57.583Z,67.25
2022-08-20T06:32:55.097Z,67.02
2022-08-20T06:35:52.578Z,66.73
2022-08-20T06:38:50.157Z,66.53
2022-08-20T06:41:47.805Z,66.29
2022-08-20T06:44:50.167Z,66.03
2022-08-20T06:47:47.718Z,65.66
2022-08-20T06:50:47.405Z,65.50
2022-08-20T06:53:45.667Z,65.20
2022-08-20T06:56:44.308Z,64.86
2022-08-20T06:59:42.068Z,64.37
2022-08-20T07:02:39.553Z,64.00
2022-08-20T07:05:37.031Z,63.69
2022-08-20T07:08:34.509Z,63.13
2022-08-20T07:11:31.971Z,62.92
2022-08-20T07:14:29.447Z,62.50
2022-08-20T07:17:26.981Z,62.29
2022-08-20T07:20:24.491Z,62.10
2022-08-20T07:23:22.053Z,62.20
2022-08-20T07:26:19.562Z,62.01
2022-08-20T07:29:17.056Z,61.88
2022-08-20T07:32:39.518Z,61.88
2022-08-20T07:35:37.541Z,61.86
2022-08-20T07:38:36.363Z,61.63
2022-08-20T07:41:33.848Z,61.12
2022-08-20T07:44:31.470Z,60.63
2022-08-20T07:47:28.961Z,60.07
2022-08-20T07:50:26.436Z,59.59
2022-08-20T07:53:23.922Z,58.42
2022-08-20T07:56:21.491Z,58.00
2022-08-20T07:59:20.327Z,57.41
2022-08-20T08:02:17.795Z,55.71
2022-08-20T08:05:15.347Z,54.72
2022-08-20T08:08:12.845Z,53.48
2022-08-20T08:11:10.355Z,52.74
2022-08-20T08:14:09.674Z,51.65
2022-08-20T08:17:07.300Z,51.12
2022-08-20T08:20:04.793Z,50.23
2022-08-20T08:23:02.254Z,49.75
2022-08-20T08:26:00.385Z,48.87
2022-08-20T08:28:58.530Z,48.16
2022-08-20T08:31:56.134Z,47.47
2022-08-20T08:34:53.628Z,47.47
2022-08-20T08:37:51.116Z,47.37
2022-08-20T08:40:52.206Z,47.15
2022-08-20T08:43:57.427Z,47.55
2022-08-20T08:46:56.656Z,47.61
2022-08-20T08:49:54.140Z,47.75
2022-08-20T08:52:51.607Z,47.25
2022-08-20T08:55:49.126Z,46.94
2022-08-20T08:58:46.623Z,47.28
2022-08-20T09:01:56.328Z,46.93
2022-08-20T09:04:56.161Z,47.43
2022-08-20T09:07:54.410Z,47.24
2022-08-20T09:10:51.955Z,47.07
2022-08-20T09:13:49.444Z,47.44
2022-08-20T09:16:52.866Z,47.12
2022-08-20T09:19:52.493Z,47.20
2022-08-20T09:22:50.191Z,47.01
2022-08-20T09:25:49.906Z,46.81
2022-08-20T09:28:51.658Z,46.60
2022-08-20T09:31:49.862Z,46.65
2022-08-20T09:34:47.351Z,46.60
2022-08-20T09:37:44.834Z,46.21
2022-08-20T09:40:43.493Z,45.82
2022-08-20T09:43:41.086Z,45.55
2022-08-20T09:46:38.588Z,45.09
2022-08-20T09:49:37.441Z,43.90
2022-08-20T09:52:38.868Z,43.22
2022-08-20T09:55:38.130Z,42.80
2022-08-20T09:58:35.666Z,42.46
2022-08-20T10:01:33.441Z,42.17
2022-08-20T10:04:30.991Z,42.54
2022-08-20T10:07:28.485Z,42.37
2022-08-20T10:10:25.949Z,41.91
2022-08-20T10:13:23.418Z,41.26
2022-08-20T10:16:20.899Z,40.68
2022-08-20T10:19:18.376Z,40.11
2022-08-20T10:22:15.852Z,39.24
2022-08-20T10:25:13.616Z,37.83
2022-08-20T10:28:11.192Z,37.86
2022-08-20T10:31:08.674Z,37.95
2022-08-20T10:34:06.418Z,37.11
2022-08-20T10:37:03.903Z,37.18
2022-08-20T10:40:01.499Z,37.17
2022-08-20T10:42:59.111Z,36.48
2022-08-20T10:45:56.603Z,36.27
2022-08-20T10:48:54.081Z,36.21
2022-08-20T10:51:51.555Z,36.17
2022-08-20T10:54:49.349Z,36.10
2022-08-20T10:57:46.886Z,36.00
2022-08-20T11:00:45.836Z,35.78
2022-08-20T11:03:43.529Z,35.68
2022-08-20T11:06:41.032Z,35.91
2022-08-20T11:09:38.612Z,36.88
2022-08-20T11:12:36.091Z,37.61
2022-08-20T11:15:33.565Z,37.98
2022-08-20T11:18:31.045Z,38.52
2022-08-20T11:21:28.509Z,38.88
2022-08-20T11:24:25.986Z,39.35
2022-08-20T11:27:23.468Z,39.82
2022-08-20T11:30:20.922Z,40.19
2022-08-20T11:33:19.334Z,40.52
2022-08-20T11:36:20.758Z,40.53
2022-08-20T11:39:18.957Z,40.67
2022-08-20T11:42:16.662Z,40.52
2022-08-20T11:45:14.122Z,40.53
2022-08-20T11:48:11.615Z,40.46
2022-08-20T11:51:09.078Z,40.66
2022-08-20T11:54:06.559Z,41.09
2022-08-20T11:57:05.625Z,41.25
2022-08-20T12:00:03.143Z,41.37
2022-08-20T12:03:00.810Z,41.71
2022-08-20T12:05:58.497Z,41.93
2022-08-20T12:08:55.986Z,42.37
2022-08-20T12:11:53.941Z,42.88
2022-08-20T12:14:51.450Z,43.41
2022-08-20T12:17:48.965Z,43.86
2022-08-20T12:20:46.417Z,44.18
2022-08-20T12:23:48.418Z,44.71
2022-08-20T12:26:46.267Z,45.13
2022-08-20T12:29:43.747Z,45.46
2022-08-20T12:32:41.227Z,45.89
2022-08-20T12:35:39.026Z,46.06
2022-08-20T12:38:36.536Z,46.44
2022-08-20T12:41:33.996Z,46.71
2022-08-20T12:44:31.479Z,47.05
2022-08-20T12:47:28.946Z,47.40
2022-08-20T12:50:31.261Z,47.85
2022-08-20T12:53:29.160Z,48.23
2022-08-20T12:56:26.643Z,48.65
2022-08-20T12:59:26.070Z,48.81
2022-08-20T13:02:23.736Z,48.96
2022-08-20T13:05:21.217Z,49.11
2022-08-20T13:08:19.635Z,48.92
2022-08-20T13:11:17.240Z,49.27
2022-08-20T13:14:14.710Z,49.40
2022-08-20T13:17:12.197Z,49.29
2022-08-20T13:20:10.242Z,49.18
2022-08-20T13:23:07.722Z,49.40
2022-08-20T13:26:05.945Z,49.62
2022-08-20T13:29:03.417Z,49.26
2022-08-20T13:32:00.865Z,49.13
2022-08-20T13:34:58.329Z,49.18
2022-08-20T13:37:55.811Z,49.28
2022-08-20T13:40:53.302Z,49.29
2022-08-20T13:43:50.789Z,49.17
2022-08-20T13:46:48.738Z,48.98
2022-08-20T13:49:46.235Z,48.89
2022-08-20T13:52:43.699Z,48.60
2022-08-20T13:55:41.780Z,48.14
2022-08-20T13:58:39.239Z,47.92
2022-08-20T14:01:36.772Z,47.83
2022-08-20T14:04:34.311Z,47.78
2022-08-20T14:07:32.918Z,47.91
2022-08-20T14:10:32.807Z,48.04
2022-08-20T14:13:30.272Z,48.17
2022-08-20T14:16:29.000Z,48.30
2022-08-20T14:19:27.897Z,48.45
2022-08-20T14:22:25.391Z,48.55
2022-08-20T14:25:22.889Z,48.79
2022-08-20T14:28:20.358Z,49.00
2022-08-20T14:31:17.846Z,49.38
2022-08-20T14:34:15.313Z,49.91
2022-08-20T14:37:13.065Z,50.43
2022-08-20T14:40:10.587Z,50.91
2022-08-20T14:43:08.082Z,51.54
2022-08-20T14:46:05.563Z,51.95
2022-08-20T14:49:03.048Z,52.47
2022-08-20T14:52:00.534Z,52.91
2022-08-20T14:54:58.011Z,53.25
2022-08-20T14:57:55.486Z,53.43
2022-08-20T15:00:53.069Z,54.16
2022-08-20T15:03:50.578Z,54.26
2022-08-20T15:06:48.654Z,54.38
2022-08-20T15:09:46.538Z,55.03
2022-08-20T15:12:44.014Z,55.19
2022-08-20T15:15:41.640Z,55.37
2022-08-20T15:18:39.130Z,55.68
2022-08-20T15:21:44.957Z,56.02
2022-08-20T15:24:43.410Z,56.30
2022-08-20T15:27:40.900Z,56.29
2022-08-20T15:30:38.365Z,56.51
2022-08-20T15:33:35.872Z,56.77
2022-08-20T15:36:33.356Z,57.03
2022-08-20T15:39:30.827Z,57.00
2022-08-20T15:42:28.309Z,57.62
2022-08-20T15:45:25.800Z,57.83
2022-08-20T15:48:23.314Z,58.38
2022-08-20T15:51:20.816Z,58.42
2022-08-20T15:54:18.270Z,58.87
2022-08-20T15:57:17.508Z,58.86
2022-08-20T16:00:14.994Z,59.45
2022-08-20T16:03:12.473Z,59.50
2022-08-20T16:06:13.648Z,59.53
2022-08-20T16:09:11.497Z,60.19
2022-08-20T16:12:08.979Z,60.41
2022-08-20T16:15:06.464Z,60.35
2022-08-20T16:18:03.938Z,60.33
2022-08-20T16:21:03.771Z,60.58
2022-08-20T16:24:01.578Z,60.57
2022-08-20T16:26:59.772Z,61.24
2022-08-20T16:29:57.279Z,61.16
2022-08-20T16:32:54.802Z,61.37
2022-08-20T16:35:52.283Z,61.50
2022-08-20T16:38:49.771Z,61.42
2022-08-20T16:41:47.314Z,61.61
2022-08-20T16:44:44.796Z,61.85
2022-08-20T16:47:42.324Z,62.09
2022-08-20T16:50:40.388Z,62.42
2022-08-20T16:53:37.872Z,62.45
2022-08-20T16:56:35.338Z,62.49
2022-08-20T16:59:33.089Z,62.61
2022-08-20T17:02:30.550Z,62.50
2022-08-20T17:05:28.046Z,62.82
2022-08-20T17:08:25.520Z,63.11
2022-08-20T17:11:24.266Z,63.03
2022-08-20T17:14:21.742Z,63.38
2022-08-20T17:17:19.205Z,63.70
2022-08-20T17:20:20.260Z,63.96
2022-08-20T17:23:18.582Z,63.84
2022-08-20T17:26:16.055Z,64.16
2022-08-20T17:29:14.039Z,64.19
2022-08-20T17:32:11.816Z,64.15
2022-08-20T17:35:09.295Z,64.58
2022-08-20T17:38:06.807Z,64.44
2022-08-20T17:41:04.832Z,64.92
2022-08-20T17:44:02.331Z,65.09
2022-08-20T17:46:59.818Z,64.89
2022-08-20T17:50:02.195Z,65.23
2022-08-20T17:53:00.491Z,65.30
2022-08-20T17:55:58.535Z,65.34
2022-08-20T17:59:02.822Z,65.51
2022-08-20T18:02:01.184Z,65.77
2022-08-20T18:04:58.722Z,65.93
2022-08-20T18:07:56.194Z,66.24
2022-08-20T18:10:53.682Z,66.19
2022-08-20T18:13:51.143Z,66.22
2022-08-20T18:16:48.677Z,66.35
2022-08-20T18:19:46.169Z,66.79
2022-08-20T18:22:43.653Z,66.76
2022-08-20T18:25:41.141Z,67.07
2022-08-20T18:28:38.944Z,66.98
2022-08-20T18:31:36.588Z,67.21
2022-08-20T18:34:34.078Z,67.69
2022-08-20T18:37:31.582Z,67.95
2022-08-20T18:40:29.220Z,68.01
2022-08-20T18:43:30.487Z,68.54
2022-08-20T18:46:28.160Z,68.57
2022-08-20T18:49:25.614Z,68.43
2022-08-20T18:52:23.163Z,68.72
2022-08-20T18:55:20.674Z,69.06
2022-08-20T18:58:18.147Z,69.20
2022-08-20T19:01:15.729Z,68.83
2022-08-20T19:04:13.651Z,69.05
2022-08-20T19:07:11.191Z,69.04
2022-08-20T19:10:09.488Z,69.36
2022-08-20T19:13:14.173Z,69.22
2022-08-20T19:16:13.616Z,69.15
2022-08-20T19:19:11.068Z,69.54
2022-08-20T19:22:08.532Z,69.73
2022-08-20T19:25:06.033Z,69.49
2022-08-20T19:28:03.528Z,69.84
2022-08-20T19:31:01.170Z,69.95
2022-08-20T19:33:59.014Z,70.21
2022-08-20T19:36:57.667Z,69.88
2022-08-20T19:39:55.646Z,70.30
2022-08-20T19:42:53.150Z,70.24
2022-08-20T19:45:50.595Z,70.10
2022-08-20T19:48:48.090Z,70.32
2022-08-20T19:51:47.968Z,70.25
2022-08-20T19:54:46.528Z,70.27
2022-08-20T19:57:44.401Z,70.53
2022-08-20T20:00:42.362Z,70.54
2022-08-20T20:03:39.859Z,71.04
2022-08-20T20:06:37.343Z,71.03
2022-08-20T20:09:34.820Z,71.66
2022-08-20T20:12:32.593Z,72.01
2022-08-20T20:15:30.278Z,72.55
2022-08-20T20:18:27.830Z,72.17
2022-08-20T20:21:25.300Z,72.55
2022-08-20T20:24:22.774Z,72.44
2022-08-20T20:27:21.595Z,72.91
2022-08-20T20:30:19.489Z,72.62
2022-08-20T20:33:16.986Z,72.65
2022-08-20T20:36:14.470Z,72.95
2022-08-20T20:39:14.491Z,73.15
2022-08-20T20:42:12.931Z,73.04
2022-08-20T20:45:10.425Z,72.46
2022-08-20T20:48:07.905Z,72.83
2022-08-20T20:51:05.381Z,72.56
2022-08-20T20:54:02.904Z,72.51
2022-08-20T20:57:00.416Z,72.42
2022-08-20T20:59:57.910Z,72.69
2022-08-20T21:02:55.362Z,72.70
2022-08-20T21:05:52.828Z,73.19
2022-08-20T21:08:50.701Z,73.39
2022-08-20T21:11:48.164Z,73.78
2022-08-20T21:14:45.680Z,73.66
2022-08-20T21:17:43.313Z,74.40
2022-08-20T21:20:40.793Z,74.21
2022-08-20T21:23:40.390Z,74.58
2022-08-20T21:26:39.585Z,74.71
2022-08-20T21:29:37.727Z,74.73
2022-08-20T21:32:35.225Z,74.65
2022-08-20T21:35:32.747Z,75.13
2022-08-20T21:38:30.211Z,75.06
2022-08-20T21:41:30.082Z,75.03
2022-08-20T21:44:27.877Z,75.68
2022-08-20T21:47:27.336Z,75.78
2022-08-20T21:50:24.821Z,75.99
2022-08-20T21:53:22.314Z,76.17
2022-08-20T21:56:19.803Z,76.44
2022-08-20T21:59:19.987Z,76.51
2022-08-20T22:02:17.493Z,76.64
2022-08-20T22:05:14.981Z,76.71
2022-08-20T22:08:12.457Z,77.72
2022-08-20T22:11:09.950Z,77.39
2022-08-20T22:14:07.430Z,77.66
2022-08-20T22:17:04.897Z,77.98
2022-08-20T22:20:02.500Z,77.53
2022-08-20T22:23:00.102Z,77.74
2022-08-20T22:25:57.698Z,78.20
2022-08-20T22:28:55.175Z,78.21
2022-08-20T22:31:52.677Z,77.65
2022-08-20T22:34:50.147Z,77.80
2022-08-20T22:37:47.626Z,77.66
2022-08-20T22:40:45.106Z,77.60
2022-08-20T22:43:55.043Z,78.22
2022-08-20T22:46:55.868Z,78.63
2022-08-20T22:49:53.537Z,78.77
2022-08-20T22:52:51.098Z,78.11
2022-08-20T22:55:48.595Z,78.11
2022-08-20T22:58:46.286Z,78.11
2022-08-20T23:01:47.687Z,78.13
2022-08-20T23:04:45.157Z,78.16
2022-08-20T23:07:42.638Z,77.92
2022-08-20T23:10:40.112Z,78.10
2022-08-20T23:13:37.598Z,78.06
2022-08-20T23:16:35.065Z,77.93
2022-08-20T23:19:32.545Z,78.22
2022-08-20T23:22:30.026Z,77.95
2022-08-20T23:25:27.488Z,78.34
2022-08-20T23:28:25.304Z,78.45
2022-08-20T23:31:23.122Z,78.48
2022-08-20T23:34:20.613Z,78.23
2022-08-20T23:37:18.933Z,78.56
2022-08-20T23:40:16.459Z,78.42
2022-08-20T23:43:14.005Z,78.17
2022-08-20T23:46:11.508Z,78.25
2022-08-20T23:49:08.986Z,78.29
2022-08-20T23:52:06.596Z,78.26
2022-08-20T23:55:04.090Z,78.65
2022-08-20T23:58:01.565Z,78.57
